createdAt,value
2022-08-30T00:01:14.059Z,23.10
2022-08-30T00:03:46.696Z,23.10
2022-08-30T00:06:15.825Z,23.00
2022-08-30T00:08:44.202Z,23.00
2022-08-30T00:11:14.370Z,22.90
2022-08-30T00:13:43.165Z,22.90
2022-08-30T00:16:10.653Z,22.90
2022-08-30T00:18:38.213Z,22.80
2022-08-30T00:21:06.282Z,22.80
2022-08-30T00:23:33.293Z,22.80
2022-08-30T00:26:00.562Z,22.80
2022-08-30T00:28:27.506Z,22.80
2022-08-30T00:30:54.863Z,22.80
2022-08-30T00:33:23.038Z,22.80
2022-08-30T00:35:50.474Z,22.70
2022-08-30T00:38:17.263Z,22.70
2022-08-30T00:40:45.483Z,22.70
2022-08-30T00:43:23.267Z,22.60
2022-08-30T00:45:51.109Z,22.60
2022-08-30T00:48:18.248Z,22.60
2022-08-30T00:50:58.434Z,22.60
2022-08-30T00:53:29.032Z,22.50
2022-08-30T00:55:56.309Z,22.50
2022-08-30T00:58:28.007Z,22.50
2022-08-30T01:00:57.015Z,22.40
2022-08-30T01:03:24.136Z,22.40
2022-08-30T01:05:52.418Z,22.40
2022-08-30T01:08:22.190Z,22.40
2022-08-30T01:10:51.335Z,22.30
2022-08-30T01:13:18.380Z,22.30
2022-08-30T01:15:46.247Z,22.30
2022-08-30T01:18:14.903Z,22.30
2022-08-30T01:20:54.143Z,22.20
2022-08-30T01:23:21.982Z,22.20
2022-08-30T01:25:50.586Z,22.20
2022-08-30T01:28:23.733Z,22.20
2022-08-30T01:30:51.489Z,22.10
2022-08-30T01:33:22.159Z,22.10
2022-08-30T01:35:54.085Z,22.10
2022-08-30T01:38:35.574Z,22.10
2022-08-30T01:41:16.797Z,22.10
2022-08-30T01:43:44.202Z,22.00
2022-08-30T01:46:12.225Z,22.00
2022-08-30T01:48:42.303Z,22.00
2022-08-30T01:51:21.859Z,21.90
2022-08-30T01:53:48.754Z,21.90
2022-08-30T01:56:15.710Z,21.90
2022-08-30T01:58:42.451Z,21.90
2022-08-30T02:01:12.752Z,21.90
2022-08-30T02:03:41.559Z,21.80
2022-08-30T02:06:10.740Z,21.80
2022-08-30T02:08:38.195Z,21.80
2022-08-30T02:11:06.545Z,21.80
2022-08-30T02:13:35.236Z,21.80
2022-08-30T02:16:01.918Z,21.70
2022-08-30T02:18:29.126Z,21.70
2022-08-30T02:20:55.863Z,21.60
2022-08-30T02:23:22.603Z,21.60
2022-08-30T02:25:49.386Z,21.60
2022-08-30T02:28:16.108Z,21.60
2022-08-30T02:30:46.502Z,21.50
2022-08-30T02:33:13.384Z,21.50
2022-08-30T02:35:40.461Z,21.50
2022-08-30T02:38:07.981Z,21.50
2022-08-30T02:40:35.238Z,21.50
2022-08-30T02:43:06.089Z,21.40
2022-08-30T02:45:32.961Z,21.40
2022-08-30T02:47:59.977Z,21.40
2022-08-30T02:50:26.914Z,21.40
2022-08-30T02:52:54.373Z,21.30
2022-08-30T02:55:22.685Z,21.40
2022-08-30T02:57:49.598Z,21.30
2022-08-30T03:00:19.376Z,21.30
2022-08-30T03:02:46.198Z,21.30
2022-08-30T03:05:15.480Z,21.30
2022-08-30T03:07:43.344Z,21.30
2022-08-30T03:10:10.965Z,21.20
2022-08-30T03:12:38.055Z,21.20
2022-08-30T03:15:10.546Z,21.20
2022-08-30T03:17:37.267Z,21.20
2022-08-30T03:20:05.047Z,21.10
2022-08-30T03:22:32.001Z,21.10
2022-08-30T03:24:59.668Z,21.10
2022-08-30T03:27:28.057Z,21.10
2022-08-30T03:29:55.274Z,21.10
2022-08-30T03:32:22.729Z,21.00
2022-08-30T03:34:50.229Z,21.00
2022-08-30T03:37:17.440Z,21.00
2022-08-30T03:39:45.510Z,21.00
2022-08-30T03:42:12.704Z,21.00
2022-08-30T03:44:39.851Z,21.00
2022-08-30T03:47:08.458Z,21.00
2022-08-30T03:49:35.623Z,20.90
2022-08-30T03:52:02.748Z,20.90
2022-08-30T03:54:29.464Z,20.90
2022-08-30T03:56:56.459Z,20.80
2022-08-30T03:59:23.416Z,20.80
2022-08-30T04:01:50.266Z,20.80
2022-08-30T04:04:20.942Z,20.80
2022-08-30T04:06:48.776Z,20.80
2022-08-30T04:09:15.572Z,20.70
2022-08-30T04:11:42.554Z,20.70
2022-08-30T04:14:09.352Z,20.70
2022-08-30T04:16:36.455Z,20.70
2022-08-30T04:19:04.273Z,20.70
2022-08-30T04:21:31.081Z,20.60
2022-08-30T04:23:58.003Z,20.60
2022-08-30T04:26:29.315Z,20.60
2022-08-30T04:28:57.569Z,20.60
2022-08-30T04:31:24.476Z,20.60
2022-08-30T04:33:51.291Z,20.50
2022-08-30T04:36:18.008Z,20.60
2022-08-30T04:38:44.731Z,20.50
2022-08-30T04:41:18.998Z,20.50
2022-08-30T04:43:48.301Z,20.50
2022-08-30T04:46:15.107Z,20.50
2022-08-30T04:48:42.131Z,20.50
2022-08-30T04:51:14.079Z,20.50
2022-08-30T04:53:42.252Z,20.50
2022-08-30T04:56:11.514Z,20.50
2022-08-30T04:58:38.565Z,20.50
2022-08-30T05:01:05.545Z,20.40
2022-08-30T05:03:33.481Z,20.40
2022-08-30T05:06:00.260Z,20.40
2022-08-30T05:08:27.019Z,20.40
2022-08-30T05:10:55.235Z,20.40
2022-08-30T05:13:24.349Z,20.50
2022-08-30T05:16:04.421Z,20.40
2022-08-30T05:18:31.333Z,20.50
2022-08-30T05:21:17.111Z,20.50
2022-08-30T05:23:44.403Z,20.50
2022-08-30T05:26:20.468Z,20.50
2022-08-30T05:28:48.995Z,20.60
2022-08-30T05:31:20.120Z,20.60
2022-08-30T05:33:48.600Z,20.60
2022-08-30T05:36:18.511Z,20.60
2022-08-30T05:38:45.606Z,20.60
2022-08-30T05:41:13.486Z,20.70
2022-08-30T05:43:40.284Z,20.70
2022-08-30T05:46:10.640Z,20.70
2022-08-30T05:48:38.451Z,20.80
2022-08-30T05:51:09.793Z,20.80
2022-08-30T05:53:36.951Z,20.80
2022-08-30T05:56:05.910Z,20.80
2022-08-30T05:58:33.401Z,20.80
2022-08-30T06:01:00.609Z,20.80
2022-08-30T06:03:28.175Z,20.80
2022-08-30T06:05:55.000Z,20.90
2022-08-30T06:08:22.270Z,20.90
2022-08-30T06:10:49.121Z,20.90
2022-08-30T06:13:15.879Z,20.90
2022-08-30T06:15:47.151Z,20.90
2022-08-30T06:18:14.135Z,21.00
2022-08-30T06:20:47.445Z,21.00
2022-08-30T06:23:17.992Z,21.00
2022-08-30T06:25:44.956Z,21.00
2022-08-30T06:28:12.339Z,21.10
2022-08-30T06:30:41.591Z,21.10
2022-08-30T06:33:08.989Z,21.10
2022-08-30T06:36:00.432Z,21.20
2022-08-30T06:38:28.461Z,21.20
2022-08-30T06:40:55.263Z,21.30
2022-08-30T06:43:22.058Z,21.30
2022-08-30T06:45:48.837Z,21.40
2022-08-30T06:48:15.776Z,21.40
2022-08-30T06:50:43.477Z,21.50
2022-08-30T06:53:10.314Z,21.60
2022-08-30T06:55:37.404Z,21.60
2022-08-30T06:58:07.856Z,21.70
2022-08-30T07:00:34.674Z,21.70
2022-08-30T07:03:03.847Z,21.80
2022-08-30T07:05:30.624Z,21.80
2022-08-30T07:07:57.398Z,21.80
2022-08-30T07:10:24.220Z,21.90
2022-08-30T07:12:51.166Z,21.90
2022-08-30T07:15:22.819Z,22.00
2022-08-30T07:18:08.332Z,22.00
2022-08-30T07:20:40.246Z,22.00
2022-08-30T07:23:07.816Z,22.10
2022-08-30T07:25:36.917Z,22.20
2022-08-30T07:28:04.813Z,22.20
2022-08-30T07:30:34.772Z,22.30
2022-08-30T07:33:01.799Z,22.40
2022-08-30T07:35:28.638Z,22.50
2022-08-30T07:37:55.530Z,22.60
2022-08-30T07:40:22.614Z,22.70
2022-08-30T07:42:49.413Z,22.80
2022-08-30T07:45:16.464Z,22.80
2022-08-30T07:47:43.192Z,22.90
2022-08-30T07:50:09.980Z,23.00
2022-08-30T07:55:06.311Z,23.10
2022-08-30T07:57:34.479Z,23.10
2022-08-30T08:00:01.865Z,23.20
2022-08-30T08:02:28.749Z,23.20
2022-08-30T08:04:55.587Z,23.30
2022-08-30T08:07:22.336Z,23.30
2022-08-30T08:09:49.474Z,23.30
2022-08-30T08:12:16.330Z,23.40
2022-08-30T08:14:43.115Z,23.40
2022-08-30T08:17:10.023Z,23.50
2022-08-30T08:19:36.782Z,23.50
2022-08-30T08:22:19.875Z,23.60
2022-08-30T08:24:47.204Z,23.70
2022-08-30T08:27:13.920Z,23.80
2022-08-30T08:29:40.746Z,23.80
2022-08-30T08:32:07.594Z,23.90
2022-08-30T08:34:36.013Z,23.90
2022-08-30T08:37:03.137Z,24.00
2022-08-30T08:39:29.920Z,24.00
2022-08-30T08:42:08.115Z,24.10
2022-08-30T08:47:33.109Z,24.20
2022-08-30T08:50:03.214Z,24.30
2022-08-30T08:52:54.936Z,24.30
2022-08-30T08:55:23.385Z,24.40
2022-08-30T08:57:52.614Z,24.40
2022-08-30T09:00:19.536Z,24.50
2022-08-30T09:02:55.878Z,24.60
2022-08-30T09:05:28.552Z,24.70
2022-08-30T09:08:10.133Z,24.80
2022-08-30T09:10:49.958Z,24.90
2022-08-30T09:13:18.853Z,24.90
2022-08-30T09:15:47.406Z,25.00
2022-08-30T09:18:19.652Z,25.10
2022-08-30T09:20:49.244Z,25.20
2022-08-30T09:23:15.938Z,25.30
2022-08-30T09:26:07.191Z,25.30
2022-08-30T09:28:51.013Z,25.40
2022-08-30T09:31:23.697Z,25.50
2022-08-30T09:34:25.935Z,25.60
2022-08-30T09:36:56.018Z,25.60
2022-08-30T09:39:37.349Z,25.70
2022-08-30T09:42:19.788Z,25.80
2022-08-30T09:44:46.630Z,25.90
2022-08-30T09:47:31.488Z,26.00
2022-08-30T09:50:15.077Z,26.10
2022-08-30T09:53:11.743Z,26.10
2022-08-30T09:56:01.712Z,26.10
2022-08-30T09:58:56.533Z,26.20
2022-08-30T10:01:55.659Z,26.30
2022-08-30T10:04:40.196Z,26.40
2022-08-30T10:07:12.162Z,26.40
2022-08-30T10:10:02.842Z,26.50
2022-08-30T10:12:39.855Z,26.60
2022-08-30T10:15:21.627Z,26.60
2022-08-30T10:17:48.778Z,26.70
2022-08-30T10:20:31.684Z,26.80
2022-08-30T10:23:03.935Z,27.00
2022-08-30T10:25:41.730Z,27.00
2022-08-30T10:28:19.109Z,27.10
2022-08-30T10:30:54.275Z,27.20
2022-08-30T10:33:28.704Z,27.40
2022-08-30T10:36:03.543Z,27.50
2022-08-30T10:38:37.829Z,27.60
2022-08-30T10:41:36.832Z,27.70
2022-08-30T10:44:27.803Z,27.90
2022-08-30T10:47:23.002Z,28.00
2022-08-30T10:49:55.485Z,28.20
2022-08-30T10:52:35.361Z,28.30
2022-08-30T10:55:11.348Z,28.40
2022-08-30T10:57:38.814Z,28.40
2022-08-30T11:00:14.111Z,28.60
2022-08-30T11:03:02.092Z,28.70
2022-08-30T11:05:59.896Z,28.80
2022-08-30T11:08:41.728Z,29.00
2022-08-30T11:11:16.417Z,29.10
2022-08-30T11:13:44.905Z,29.20
2022-08-30T11:16:19.032Z,29.30
2022-08-30T11:18:54.006Z,29.30
2022-08-30T11:21:25.021Z,29.40
2022-08-30T11:24:12.590Z,29.50
2022-08-30T11:26:45.908Z,29.70
2022-08-30T11:29:31.790Z,29.80
2022-08-30T11:32:21.273Z,29.90
2022-08-30T11:34:47.952Z,29.90
2022-08-30T11:37:37.107Z,29.80
2022-08-30T11:40:13.231Z,29.70
2022-08-30T11:42:49.318Z,29.50
2022-08-30T11:45:26.742Z,29.50
2022-08-30T11:48:04.471Z,29.50
2022-08-30T11:50:55.208Z,29.60
2022-08-30T11:53:46.497Z,29.60
2022-08-30T11:56:22.496Z,29.60
2022-08-30T11:59:01.784Z,29.60
2022-08-30T12:01:51.259Z,29.70
2022-08-30T12:04:18.022Z,29.70
2022-08-30T12:06:51.525Z,29.50
2022-08-30T12:09:21.183Z,29.40
2022-08-30T12:12:07.193Z,29.40
2022-08-30T12:14:44.637Z,29.30
2022-08-30T12:17:42.149Z,29.30
2022-08-30T12:20:47.186Z,29.30
2022-08-30T12:23:19.160Z,29.30
2022-08-30T12:25:46.603Z,29.20
2022-08-30T12:28:42.143Z,29.10
2022-08-30T12:31:19.938Z,29.00
2022-08-30T12:33:55.500Z,29.00
2022-08-30T12:36:48.998Z,29.00
2022-08-30T12:39:20.419Z,29.00
2022-08-30T12:41:47.257Z,29.00
2022-08-30T12:44:25.798Z,29.00
2022-08-30T12:46:59.515Z,29.10
2022-08-30T12:49:29.968Z,29.20
2022-08-30T12:52:15.841Z,29.20
2022-08-30T12:54:45.257Z,29.30
2022-08-30T12:57:34.278Z,29.30
2022-08-30T13:00:01.975Z,29.40
2022-08-30T13:02:44.686Z,29.60
2022-08-30T13:05:48.069Z,29.80
2022-08-30T13:08:18.479Z,29.90
2022-08-30T13:11:24.878Z,30.00
2022-08-30T13:14:29.755Z,30.10
2022-08-30T13:17:20.332Z,30.30
2022-08-30T13:19:58.287Z,30.40
2022-08-30T13:22:31.259Z,30.30
2022-08-30T13:24:58.730Z,30.30
2022-08-30T13:27:26.933Z,30.30
2022-08-30T13:29:54.323Z,30.60
2022-08-30T13:32:22.350Z,30.90
2022-08-30T13:34:49.308Z,31.30
2022-08-30T13:40:14.511Z,31.90
2022-08-30T13:42:42.902Z,32.10
2022-08-30T13:45:43.618Z,32.10
2022-08-30T13:48:00.913Z,32.10
2022-08-30T13:50:28.322Z,32.10
2022-08-30T13:52:57.398Z,32.20
2022-08-30T13:55:24.201Z,32.20
2022-08-30T13:57:55.092Z,32.30
2022-08-30T14:00:23.711Z,32.50
2022-08-30T14:02:55.915Z,32.60
2022-08-30T14:11:05.723Z,32.30
2022-08-30T14:13:32.926Z,32.60
2022-08-30T14:18:48.956Z,32.70
2022-08-30T14:21:16.070Z,32.60
2022-08-30T14:23:42.925Z,32.50
2022-08-30T14:26:24.537Z,32.30
2022-08-30T14:28:53.051Z,32.20
2022-08-30T14:31:20.290Z,32.20
2022-08-30T14:33:47.569Z,32.30
2022-08-30T14:36:15.485Z,32.40
2022-08-30T14:38:43.566Z,32.50
2022-08-30T14:41:11.064Z,32.60
2022-08-30T14:43:40.587Z,32.60
2022-08-30T14:46:08.990Z,32.60
2022-08-30T14:48:38.501Z,32.60
2022-08-30T14:51:16.939Z,32.40
2022-08-30T14:53:44.862Z,32.30
2022-08-30T14:56:15.582Z,32.30
2022-08-30T14:58:42.954Z,32.30
2022-08-30T15:01:12.353Z,32.40
2022-08-30T15:03:40.829Z,32.30
2022-08-30T15:06:09.180Z,32.20
2022-08-30T15:08:37.207Z,32.30
2022-08-30T15:11:09.433Z,32.20
2022-08-30T15:13:36.714Z,32.10
2022-08-30T15:16:10.907Z,32.00
2022-08-30T15:18:37.980Z,32.20
2022-08-30T15:21:04.909Z,32.20
2022-08-30T15:23:32.049Z,32.20
2022-08-30T15:25:59.519Z,32.20
2022-08-30T15:28:26.324Z,32.30
2022-08-30T15:30:53.104Z,32.30
2022-08-30T15:33:19.828Z,32.20
2022-08-30T15:35:46.636Z,32.00
2022-08-30T15:38:13.496Z,31.80
2022-08-30T15:40:40.536Z,31.60
2022-08-30T15:43:07.306Z,31.50
2022-08-30T15:45:34.029Z,31.30
2022-08-30T15:48:00.936Z,31.20
2022-08-30T15:50:28.407Z,31.00
2022-08-30T15:52:55.224Z,30.80
2022-08-30T15:55:22.187Z,30.70
2022-08-30T15:57:49.116Z,30.70
2022-08-30T16:00:16.372Z,30.60
2022-08-30T16:02:43.950Z,30.60
2022-08-30T16:05:10.915Z,30.60
2022-08-30T16:07:40.870Z,30.60
2022-08-30T16:10:08.831Z,30.60
2022-08-30T16:12:35.569Z,30.50
2022-08-30T16:15:02.273Z,30.50
2022-08-30T16:17:29.029Z,30.40
2022-08-30T16:19:58.936Z,30.40
2022-08-30T16:22:26.472Z,30.40
2022-08-30T16:24:53.252Z,30.30
2022-08-30T16:27:22.028Z,30.30
2022-08-30T16:29:50.133Z,30.20
2022-08-30T16:32:17.570Z,30.20
2022-08-30T16:34:45.145Z,30.10
2022-08-30T16:37:11.943Z,30.00
2022-08-30T16:39:38.708Z,29.90
2022-08-30T16:42:06.769Z,29.80
2022-08-30T16:44:33.877Z,29.70
2022-08-30T16:47:02.730Z,29.60
2022-08-30T16:49:29.758Z,29.50
2022-08-30T16:51:56.578Z,29.50
2022-08-30T16:54:23.645Z,29.40
2022-08-30T16:56:50.733Z,29.40
2022-08-30T16:59:17.707Z,29.30
2022-08-30T17:01:45.726Z,29.30
2022-08-30T17:04:18.523Z,29.20
2022-08-30T17:06:48.048Z,29.20
2022-08-30T17:09:17.393Z,29.10
2022-08-30T17:11:44.719Z,29.10
2022-08-30T17:14:12.129Z,29.00
2022-08-30T17:16:39.143Z,29.00
2022-08-30T17:19:09.066Z,28.90
2022-08-30T17:21:36.373Z,28.90
2022-08-30T17:24:05.937Z,28.90
2022-08-30T17:26:34.546Z,28.80
2022-08-30T17:29:02.275Z,28.80
2022-08-30T17:31:31.129Z,28.80
2022-08-30T17:34:02.799Z,28.70
2022-08-30T17:36:35.442Z,28.70
2022-08-30T17:39:22.138Z,28.60
2022-08-30T17:41:51.568Z,28.60
2022-08-30T17:44:25.654Z,28.60
2022-08-30T17:46:53.297Z,28.50
2022-08-30T17:49:21.145Z,28.50
2022-08-30T17:51:54.172Z,28.50
2022-08-30T17:54:24.475Z,28.40
2022-08-30T17:56:52.680Z,28.40
2022-08-30T17:59:19.497Z,28.40
2022-08-30T18:01:52.453Z,28.40
2022-08-30T18:04:19.664Z,28.30
2022-08-30T18:06:46.858Z,28.30
2022-08-30T18:09:13.584Z,28.30
2022-08-30T18:11:41.120Z,28.20
2022-08-30T18:14:10.876Z,28.20
2022-08-30T18:16:39.098Z,28.10
2022-08-30T18:19:17.378Z,28.10
2022-08-30T18:21:44.487Z,28.10
2022-08-30T18:24:11.300Z,28.00
2022-08-30T18:26:43.162Z,28.00
2022-08-30T18:29:10.933Z,28.00
2022-08-30T18:31:37.746Z,27.90
2022-08-30T18:34:04.664Z,27.90
2022-08-30T18:36:31.574Z,27.90
2022-08-30T18:38:58.693Z,27.80
2022-08-30T18:41:26.594Z,27.70
2022-08-30T18:44:10.889Z,27.70
2022-08-30T18:46:55.986Z,27.70
2022-08-30T18:49:25.245Z,27.70
2022-08-30T18:51:52.268Z,27.60
2022-08-30T18:54:19.404Z,27.60
2022-08-30T18:56:46.469Z,27.60
2022-08-30T18:59:13.511Z,27.50
2022-08-30T19:01:41.170Z,27.50
2022-08-30T19:04:08.484Z,27.50
2022-08-30T19:09:22.883Z,27.40
2022-08-30T19:11:49.784Z,27.40
2022-08-30T19:14:19.365Z,27.30
2022-08-30T19:16:46.294Z,27.30
2022-08-30T19:19:13.127Z,27.30
2022-08-30T19:21:40.088Z,27.30
2022-08-30T19:24:08.352Z,27.20
2022-08-30T19:26:37.590Z,27.20
2022-08-30T19:29:06.463Z,27.20
2022-08-30T19:31:33.818Z,27.20
2022-08-30T19:34:01.101Z,27.20
2022-08-30T19:36:29.224Z,27.10
2022-08-30T19:38:56.370Z,27.10
2022-08-30T19:41:23.643Z,27.10
2022-08-30T19:43:51.695Z,27.10
2022-08-30T19:46:19.127Z,27.10
2022-08-30T19:48:46.242Z,27.10
2022-08-30T19:51:15.278Z,27.00
2022-08-30T19:53:43.379Z,27.00
2022-08-30T19:56:10.946Z,27.00
2022-08-30T19:58:38.088Z,27.00
2022-08-30T20:01:12.289Z,27.00
2022-08-30T20:03:52.911Z,27.00
2022-08-30T20:06:24.159Z,26.90
2022-08-30T20:08:51.825Z,27.00
2022-08-30T20:11:23.933Z,26.90
2022-08-30T20:13:50.892Z,26.90
2022-08-30T20:16:18.263Z,26.90
2022-08-30T20:18:45.692Z,26.90
2022-08-30T20:21:14.465Z,26.90
2022-08-30T20:23:43.286Z,26.90
2022-08-30T20:24:31.780Z,27.40
2022-08-30T20:26:12.170Z,26.80
2022-08-30T20:28:39.969Z,26.90
2022-08-30T20:31:08.497Z,26.80
2022-08-30T20:33:39.501Z,26.80
2022-08-30T20:36:09.716Z,26.80
2022-08-30T20:38:36.911Z,26.80
2022-08-30T20:41:10.545Z,26.80
2022-08-30T20:43:38.280Z,26.80
2022-08-30T20:46:10.286Z,26.80
2022-08-30T20:48:38.182Z,26.70
2022-08-30T20:51:09.558Z,26.70
2022-08-30T20:53:36.852Z,26.70
2022-08-30T20:56:04.586Z,26.70
2022-08-30T20:58:31.486Z,26.70
2022-08-30T21:00:58.387Z,26.70
2022-08-30T21:03:26.155Z,26.60
2022-08-30T21:05:55.900Z,26.60
2022-08-30T21:08:22.741Z,26.60
2022-08-30T21:10:49.754Z,26.50
2022-08-30T21:13:17.223Z,26.50
2022-08-30T21:15:46.088Z,26.40
2022-08-30T21:18:14.234Z,26.30
2022-08-30T21:20:41.544Z,26.30
2022-08-30T21:23:08.791Z,26.30
2022-08-30T21:25:38.843Z,26.20
2022-08-30T21:28:06.556Z,26.20
2022-08-30T21:30:34.555Z,26.20
2022-08-30T21:33:03.526Z,26.20
2022-08-30T21:35:48.837Z,26.10
2022-08-30T21:38:16.956Z,26.10
2022-08-30T21:40:44.025Z,26.00
2022-08-30T21:43:11.186Z,26.00
2022-08-30T21:45:39.088Z,26.00
2022-08-30T21:48:06.384Z,26.00
2022-08-30T21:50:33.390Z,26.00
2022-08-30T21:53:00.730Z,25.90
2022-08-30T21:55:27.555Z,25.90
2022-08-30T21:57:54.999Z,25.90
2022-08-30T22:00:22.082Z,25.80
2022-08-30T22:02:49.256Z,25.80
2022-08-30T22:05:20.213Z,25.80
2022-08-30T22:07:47.062Z,25.80
2022-08-30T22:10:15.520Z,25.80
2022-08-30T22:12:42.318Z,25.80
2022-08-30T22:15:09.719Z,25.80
2022-08-30T22:17:36.517Z,25.70
2022-08-30T22:20:05.271Z,25.60
2022-08-30T22:22:32.489Z,25.60
2022-08-30T22:24:59.385Z,25.50
2022-08-30T22:27:26.263Z,25.50
2022-08-30T22:29:53.070Z,25.50
2022-08-30T22:32:19.895Z,25.50
2022-08-30T22:34:46.993Z,25.50
2022-08-30T22:37:13.913Z,25.60
2022-08-30T22:39:40.623Z,25.60
2022-08-30T22:42:09.792Z,25.60
2022-08-30T22:44:36.584Z,25.60
2022-08-30T22:47:03.549Z,25.60
2022-08-30T22:49:30.870Z,25.60
2022-08-30T22:51:57.577Z,25.60
2022-08-30T22:54:24.329Z,25.50
2022-08-30T22:56:51.165Z,25.50
2022-08-30T22:59:17.938Z,25.60
2022-08-30T23:01:45.372Z,25.50
2022-08-30T23:04:13.088Z,25.50
2022-08-30T23:06:40.716Z,25.50
2022-08-30T23:09:08.410Z,25.50
2022-08-30T23:11:38.350Z,25.50
2022-08-30T23:14:06.390Z,25.50
2022-08-30T23:16:34.317Z,25.40
2022-08-30T23:19:01.061Z,25.40
2022-08-30T23:21:30.109Z,25.40
2022-08-30T23:24:16.471Z,25.40
2022-08-30T23:27:03.370Z,25.40
2022-08-30T23:29:49.654Z,25.50
2022-08-30T23:32:35.135Z,25.40
2022-08-30T23:35:20.645Z,25.40
2022-08-30T23:38:12.608Z,25.40
2022-08-30T23:40:58.114Z,25.40
2022-08-30T23:43:43.871Z,25.30
2022-08-30T23:46:29.351Z,25.30
2022-08-30T23:49:14.764Z,25.30
2022-08-30T23:52:00.420Z,25.30
2022-08-30T23:54:45.930Z,25.30
2022-08-30T23:57:31.491Z,25.30
